CST,Max TemperatureF,Mean TemperatureF,Min TemperatureF,Max Dew PointF,MeanDew PointF,Min DewpointF,Max Humidity, Mean Humidity, Min Humidity, Max Sea Level PressureIn, Mean Sea Level PressureIn, Min Sea Level PressureIn, Max VisibilityMiles, Mean VisibilityMiles, Min VisibilityMiles, Max Wind SpeedMPH, Mean Wind SpeedMPH, Max Gust SpeedMPH,PrecipitationIn, CloudCover, Events, WindDirDegrees
2012-12-1,35,28,21,34,29,21,100,96,87,29.89,29.76,29.66,10,4,1,23,13,18,0.00,8,,285
2012-12-2,41,31,21,37,30,21,100,97,87,29.90,29.70,29.36,10,4,0,16,7,22,0.00,6,Fog-Snow,142
2012-12-3,39,26,12,37,27,5,100,85,68,29.90,29.52,29.30,10,9,3,29,14,38,0.05,5,Rain,258
2012-12-4,15,12,8,10,7,3,92,81,67,30.38,30.22,29.92,10,9,5,22,14,28,0.00,2,Snow,328
2012-12-5,33,22,10,27,18,9,92,76,64,30.34,29.92,29.55,10,10,10,29,15,37,0.00,2,,162
2012-12-6,35,26,15,32,20,10,93,80,64,30.00,29.82,29.55,10,10,4,24,14,32,0.00,6,,298
2012-12-7,17,10,3,10,7,1,92,83,68,30.12,30.08,30.00,10,10,3,12,6,16,0.00,1,Snow,339
2012-12-8,17,10,-2,14,7,-6,93,86,78,30.20,30.04,29.98,10,6,0,18,8,20,0.03,7,Snow,46
2012-12-9,-2,-11,-20,-6,-14,-26,85,80,70,30.39,30.29,30.14,10,9,2,17,11,,0.00,1,Snow,346
2012-12-10,12,-3,-18,10,-4,-26,92,82,70,30.14,29.84,29.69,10,9,4,22,12,25,0.00,3,Snow,166
2012-12-11,10,0,-9,7,-5,-15,85,78,71,29.94,29.84,29.70,10,9,4,17,11,23,0.00,5,Snow,340
2012-12-12,12,5,-2,9,3,-8,92,83,78,30.02,29.86,29.75,10,8,2,20,10,18,0.00,8,Snow,38
2012-12-13,17,8,0,14,3,-4,93,84,78,30.13,30.08,30.02,10,8,2,15,8,,0.00,6,Snow,336
2012-12-14,26,17,8,23,17,7,100,92,80,30.05,29.89,29.75,10,5,0,18,11,,0.00,5,Fog-Snow,159
2012-12-15,19,12,8,18,13,7,100,93,85,29.75,29.71,29.66,10,4,0,18,4,23,0.00,5,Fog-Snow,351
2012-12-16,23,20,17,21,19,16,100,96,93,29.85,29.81,29.75,10,7,2,13,9,,0.00,8,Snow,336
2012-12-17,17,16,14,16,14,12,100,93,86,29.82,29.73,29.66,10,6,1,8,3,,0.00,8,Snow,144
2012-12-18,24,19,14,21,18,12,100,93,86,29.70,29.66,29.63,10,8,2,7,5,,0.00,8,Snow,95
2012-12-19,24,17,8,25,18,7,100,92,86,30.09,29.85,29.70,10,6,0,16,8,18,0.03,8,Snow,6
2012-12-20,10,5,0,9,6,-4,92,89,85,30.22,30.15,30.09,10,6,1,10,4,,0.00,7,Snow,330
2012-12-21,10,6,1,7,5,0,92,87,85,30.26,30.18,30.04,10,8,2,17,7,,0.00,5,Snow,173
2012-12-22,12,6,-2,9,3,-6,92,86,78,30.25,30.13,30.02,10,7,2,21,12,26,0.00,5,Snow,341
2012-12-23,1,-3,-7,-2,-7,-11,92,83,78,30.26,30.23,30.20,10,10,5,15,9,18,0.00,5,,354
2012-12-24,-4,-8,-13,-9,-14,-18,84,76,71,30.38,30.29,30.21,10,10,7,16,10,,0.00,2,,335
2012-12-25,-4,-9,-14,-9,-15,-18,84,77,71,30.49,30.44,30.39,10,10,10,7,2,,0.00,1,,209
2012-12-26,5,0,-5,1,-6,-11,85,79,71,30.39,30.32,30.27,10,9,2,5,2,,0.00,4,Snow,115
2012-12-27,15,10,5,10,7,1,92,84,79,30.27,30.21,30.13,10,8,2,9,5,,0.00,7,Snow,118
2012-12-28,12,8,3,10,7,1,92,90,85,30.13,30.04,29.97,10,8,2,10,7,,0.00,5,Snow,178
2012-12-29,12,2,-7,10,3,-11,92,86,78,30.06,30.02,29.96,10,8,2,13,5,,0.00,5,Snow,297
2012-12-30,17,8,0,16,6,-6,93,86,78,30.12,29.96,29.86,10,7,1,26,14,32,0.01,5,Snow,226
2012-12-31,0,-6,-11,-6,-11,-17,92,82,77,30.26,30.22,30.13,10,9,0,12,6,,0.00,0,Snow,272